Time;durP1;ratioP1;P1;durP2;ratioP2;P2;SDS_P1;SDS_P2;PMS_P1;PMS_P2;Temp;Humidity;BMP_temperature;BMP_pressure;BME280_temperature;BME280_humidity;BME280_pressure;Samples;Min_cycle;Max_cycle;Signal;HPM_P1;HPM_P2
2022/07/07 00:01:40;;;;;;;5.13;4.37;;;;;;;21.22;100.00;63075.50;5070913;28;20204;-72
2022/07/07 00:04:08;;;;;;;4.50;4.10;;;;;;;21.12;100.00;63065.22;5053434;28;20208;-73
2022/07/07 00:06:35;;;;;;;5.67;4.33;;;;;;;21.03;100.00;63056.03;5051530;28;20242;-75
2022/07/07 00:09:03;;;;;;;4.33;4.03;;;;;;;21.08;100.00;63060.91;5051573;28;20205;-74
2022/07/07 00:11:30;;;;;;;4.63;4.27;;;;;;;21.13;100.00;63066.31;5051943;28;20204;-74
2022/07/07 00:13:58;;;;;;;5.23;4.40;;;;;;;21.07;100.00;63054.63;5061870;28;20196;-73
2022/07/07 00:16:26;;;;;;;5.10;4.60;;;;;;;21.00;100.00;63052.78;5054155;28;20201;-74
2022/07/07 00:18:55;;;;;;;5.47;4.53;;;;;;;20.99;100.00;63049.09;5051862;28;20237;-73
2022/07/07 00:21:22;;;;;;;5.97;4.50;;;;;;;20.60;100.00;63006.91;5055667;28;20200;-72
2022/07/07 00:23:49;;;;;;;5.20;4.70;;;;;;;20.94;100.00;63048.88;5071381;28;20200;-74
2022/07/07 00:26:15;;;;;;;7.97;4.83;;;;;;;20.89;100.00;63035.69;5070822;28;20738;-74
2022/07/07 00:28:44;;;;;;;10.30;4.90;;;;;;;20.81;100.00;63027.03;5070931;28;20592;-74
2022/07/07 00:31:11;;;;;;;5.20;4.70;;;;;;;20.79;100.00;63024.88;5056461;28;20212;-73
2022/07/07 00:33:38;;;;;;;6.00;4.80;;;;;;;20.89;100.00;63038.28;5051877;28;20715;-72
2022/07/07 00:36:08;;;;;;;5.10;4.40;;;;;;;20.82;100.00;63030.72;5054816;28;20255;-74
2022/07/07 00:38:36;;;;;;;5.00;4.60;;;;;;;20.87;100.00;63030.38;5065925;28;20216;-76
2022/07/07 00:41:03;;;;;;;6.90;5.10;;;;;;;20.77;100.00;63022.69;5044186;28;20224;-75
2022/07/07 00:43:44;;;;;;;6.03;4.90;;;;;;;20.70;100.00;63014.59;5059992;28;20197;-76
2022/07/07 00:46:12;;;;;;;5.70;4.50;;;;;;;20.78;100.00;63028.97;5052082;28;20710;-75
2022/07/07 00:48:40;;;;;;;4.90;4.47;;;;;;;20.80;100.00;63030.59;5041515;28;20225;-72
2022/07/07 00:51:12;;;;;;;4.43;4.03;;;;;;;20.78;100.00;63028.97;5067463;28;20255;-73
2022/07/07 00:53:41;;;;;;;4.70;4.20;;;;;;;20.78;100.00;63026.38;5063769;28;20205;-74
2022/07/07 00:56:09;;;;;;;5.17;4.63;;;;;;;20.77;100.00;63022.69;5051933;28;20220;-74
2022/07/07 00:58:37;;;;;;;5.27;4.07;;;;;;;20.57;100.00;63006.25;5051135;28;20615;-75
2022/07/07 01:01:05;;;;;;;4.90;4.50;;;;;;;20.47;100.00;62995.44;5069859;28;20201;-73
2022/07/07 01:03:33;;;;;;;5.50;5.00;;;;;;;20.66;100.00;63016.00;5070907;28;20235;-74
2022/07/07 01:06:03;;;;;;;4.97;4.57;;;;;;;20.75;100.00;63020.53;5044981;28;20326;-74
2022/07/07 01:23:00;;;;;;;4.97;4.50;;;;;;;20.43;100.00;62985.94;5000043;27;3199038;-74
2022/07/07 01:25:27;;;;;;;5.10;4.13;;;;;;;20.33;100.00;62977.69;5088683;28;20229;-74
2022/07/07 01:27:54;;;;;;;6.43;4.20;;;;;;;20.24;100.00;62965.38;5108463;28;20199;-74
2022/07/07 01:30:21;;;;;;;4.30;3.90;;;;;;;20.21;100.00;62956.97;5100652;28;20195;-74
2022/07/07 01:32:48;;;;;;;6.63;4.00;;;;;;;20.16;100.00;62961.91;5090386;28;20590;-73
2022/07/07 01:35:17;;;;;;;5.07;4.57;;;;;;;19.55;100.00;62895.94;5100434;28;20586;-75
2022/07/07 01:37:44;;;;;;;4.43;4.03;;;;;;;20.06;100.00;62949.03;5102673;28;20206;-73
2022/07/07 01:40:16;;;;;;;6.80;4.27;;;;;;;19.86;100.00;62930.00;5097552;28;20203;-73
2022/07/07 01:42:44;;;;;;;5.47;4.30;;;;;;;19.86;100.00;62929.47;5108794;28;20287;-73
2022/07/07 01:45:11;;;;;;;4.77;3.60;;;;;;;19.03;100.00;62835.66;5091688;28;20202;-73
2022/07/07 01:47:38;;;;;;;4.57;4.10;;;;;;;19.83;100.00;62921.03;5111529;28;20199;-75
2022/07/07 01:50:06;;;;;;;6.70;4.43;;;;;;;19.73;100.00;62915.41;5109517;28;20198;-73
2022/07/07 01:52:35;;;;;;;4.30;3.90;;;;;;;19.82;100.00;62919.97;5097254;28;20231;-74
2022/07/07 01:55:04;;;;;;;4.80;4.30;;;;;;;19.93;100.00;62937.03;5104877;28;20199;-74
2022/07/07 01:57:34;;;;;;;4.67;4.07;;;;;;;19.81;100.00;62918.88;5117048;28;20204;-72
2022/07/07 02:00:01;;;;;;;4.63;4.03;;;;;;;19.78;100.00;62921.34;5128394;28;20185;-73
2022/07/07 02:02:28;;;;;;;4.33;4.00;;;;;;;19.72;100.00;62909.16;5100917;28;20208;-74
2022/07/07 02:04:56;;;;;;;4.47;3.63;;;;;;;19.75;100.00;62917.56;5093715;28;20191;-75
2022/07/07 02:07:23;;;;;;;4.70;3.67;;;;;;;19.79;100.00;62921.88;5096838;28;20210;-74
2022/07/07 02:09:53;;;;;;;5.63;4.00;;;;;;;19.48;100.00;62883.22;5107533;28;20241;-74
2022/07/07 02:12:20;;;;;;;5.83;3.80;;;;;;;19.56;100.00;62891.88;5093008;28;20235;-75
2022/07/07 02:14:49;;;;;;;5.43;3.50;;;;;;;19.46;100.00;62883.66;5087926;28;20234;-72
2022/07/07 02:17:16;;;;;;;4.50;4.10;;;;;;;19.41;100.00;62878.25;5087598;28;20200;-73
2022/07/07 02:19:43;;;;;;;5.67;3.63;;;;;;;19.45;100.00;62885.13;5081741;28;20227;-74
2022/07/07 02:22:10;;;;;;;7.33;3.80;;;;;;;19.66;100.00;62903.19;5077393;28;20323;-74
2022/07/07 02:24:39;;;;;;;3.40;3.10;;;;;;;19.53;100.00;62893.78;5073908;28;20207;-73
2022/07/07 02:27:07;;;;;;;6.37;3.40;;;;;;;19.53;100.00;62891.19;5073862;28;20203;-74
2022/07/07 02:29:34;;;;;;;3.87;3.07;;;;;;;19.50;100.00;62890.56;5073872;28;20693;-73
2022/07/07 02:32:03;;;;;;;3.63;3.33;;;;;;;19.52;100.00;62895.81;5073258;28;20243;-73
2022/07/07 02:34:30;;;;;;;3.87;3.47;;;;;;;18.77;100.00;62815.34;5073716;28;20203;-76
2022/07/07 02:36:57;;;;;;;4.47;3.17;;;;;;;19.65;100.00;62904.16;5073484;28;20200;-73
2022/07/07 02:39:25;;;;;;;4.27;3.00;;;;;;;19.52;100.00;62888.06;5073573;28;20196;-74
2022/07/07 02:41:55;;;;;;;3.20;2.67;;;;;;;19.43;100.00;62877.81;5073512;28;20200;-74
2022/07/07 02:44:22;;;;;;;4.03;3.10;;;;;;;19.57;100.00;62892.94;5073885;28;20196;-73
2022/07/07 02:46:49;;;;;;;3.47;2.97;;;;;;;19.50;100.00;62885.91;5073402;28;20680;-76
2022/07/07 02:49:18;;;;;;;4.10;3.40;;;;;;;19.43;100.00;62878.34;5073431;28;20311;-74
2022/07/07 02:51:45;;;;;;;4.00;3.10;;;;;;;19.34;100.00;62868.63;5073150;28;20227;-74
2022/07/07 02:54:13;;;;;;;3.30;3.00;;;;;;;18.61;100.00;62790.31;5073276;28;20256;-75
2022/07/07 02:56:41;;;;;;;4.03;2.97;;;;;;;19.42;100.00;62881.91;5073291;28;20622;-74
2022/07/07 02:59:08;;;;;;;5.93;2.97;;;;;;;19.34;100.00;62871.75;5073776;28;20204;-74
2022/07/07 03:01:35;;;;;;;3.10;2.73;;;;;;;19.38;100.00;62872.41;5073025;28;20200;-74
2022/07/07 03:04:02;;;;;;;7.10;3.00;;;;;;;19.39;100.00;62874.03;5073212;28;20204;-76
2022/07/07 03:06:32;;;;;;;3.13;2.83;;;;;;;19.10;100.00;62843.22;5073348;28;20201;-74
2022/07/07 03:08:59;;;;;;;3.20;2.90;;;;;;;19.38;100.00;62878.13;5069426;28;20697;-74
2022/07/07 03:11:26;;;;;;;5.70;2.80;;;;;;;19.46;100.00;62881.06;5063503;28;20235;-74
2022/07/07 03:13:53;;;;;;;3.20;2.53;;;;;;;19.53;100.00;62893.78;5072917;28;20200;-74
2022/07/07 03:16:20;;;;;;;3.33;3.03;;;;;;;19.44;100.00;62879.44;5073022;28;20674;-74
2022/07/07 03:18:47;;;;;;;2.97;2.77;;;;;;;19.40;100.00;62877.16;5072656;28;20261;-75
2022/07/07 03:21:14;;;;;;;2.93;2.70;;;;;;;19.35;100.00;62870.25;5059282;28;20235;-73
2022/07/07 03:23:42;;;;;;;3.77;2.97;;;;;;;19.41;100.00;62875.66;5072946;28;20210;-74
2022/07/07 03:26:11;;;;;;;3.10;2.90;;;;;;;19.07;100.00;62840.00;5072542;28;20244;-73
2022/07/07 03:28:38;;;;;;;6.40;2.80;;;;;;;19.45;100.00;62883.09;5072288;28;20588;-74
2022/07/07 03:31:05;;;;;;;3.50;3.10;;;;;;;19.68;100.00;62910.00;5072225;28;20235;-73
2022/07/07 03:33:33;;;;;;;7.53;2.80;;;;;;;19.84;100.00;62922.66;5072558;28;20200;-73
2022/07/07 03:36:00;;;;;;;4.83;2.80;;;;;;;19.76;100.00;62913.47;5072199;28;20621;-74
2022/07/07 03:38:27;;;;;;;2.80;2.47;;;;;;;19.66;100.00;62902.69;5054475;28;20215;-74
2022/07/07 03:40:57;;;;;;;3.53;2.50;;;;;;;19.92;100.00;62935.94;5060705;28;20574;-74
2022/07/07 03:43:24;;;;;;;3.20;2.90;;;;;;;19.90;100.00;62926.56;5073784;28;20670;-72
2022/07/07 03:45:51;;;;;;;5.20;3.17;;;;;;;19.81;100.00;62924.59;5072378;28;20650;-73
2022/07/07 03:48:18;;;;;;;6.70;2.80;;;;;;;19.86;100.00;62924.28;5055151;28;20203;-75
2022/07/07 03:50:45;;;;;;;3.40;3.10;;;;;;;19.91;100.00;62934.84;5073013;28;20200;-74
2022/07/07 03:53:14;;;;;;;7.33;3.03;;;;;;;20.02;100.00;62944.19;5072575;28;20224;-74
2022/07/07 03:55:41;;;;;;;2.97;2.70;;;;;;;20.06;100.00;62948.50;5054128;28;20201;-73
2022/07/07 03:58:11;;;;;;;5.03;3.13;;;;;;;20.25;100.00;62968.50;5054295;28;20588;-75
2022/07/07 04:00:38;;;;;;;3.13;2.87;;;;;;;20.17;100.00;62957.78;5059054;28;20200;-72
2022/07/07 04:03:05;;;;;;;4.30;2.67;;;;;;;20.11;100.00;62951.84;5071850;28;20199;-75
2022/07/07 04:05:33;;;;;;;3.77;2.80;;;;;;;19.87;100.00;62931.06;5072322;28;20207;-73
2022/07/07 04:08:01;;;;;;;5.77;3.00;;;;;;;20.25;100.00;62969.06;5072139;28;20207;-73
2022/07/07 04:10:31;;;;;;;3.40;3.10;;;;;;;20.01;100.00;62941.03;5071694;28;20678;-74
2022/07/07 04:12:59;;;;;;;5.57;2.90;;;;;;;19.89;100.00;62933.25;5071689;28;20709;-74
2022/07/07 04:15:28;;;;;;;3.60;2.50;;;;;;;20.41;100.00;62986.34;5071378;28;20218;-73
2022/07/07 04:17:56;;;;;;;5.47;2.73;;;;;;;20.40;100.00;62982.69;5071721;28;20624;-74
2022/07/07 04:20:23;;;;;;;4.13;2.90;;;;;;;19.94;100.00;62932.94;5059762;28;20204;-74
2022/07/07 04:22:50;;;;;;;2.80;2.60;;;;;;;19.98;100.00;62942.44;5054165;28;20240;-74
2022/07/07 04:25:18;;;;;;;3.17;2.87;;;;;;;19.58;100.00;62899.19;5050839;28;20674;-73
2022/07/07 04:27:45;;;;;;;3.13;2.60;;;;;;;20.46;100.00;62994.34;5071777;28;20204;-74
2022/07/07 04:30:13;;;;;;;3.53;2.97;;;;;;;20.41;100.00;62988.94;5071189;28;20687;-74
2022/07/07 04:32:43;;;;;;;4.83;2.80;;;;;;;20.53;100.00;62994.16;5071749;28;20231;-73
2022/07/07 04:35:12;;;;;;;3.20;2.80;;;;;;;20.30;100.00;62977.06;5071483;28;20208;-74
2022/07/07 04:37:39;;;;;;;4.20;2.70;;;;;;;20.76;100.00;63021.63;5071215;28;20196;-75
2022/07/07 04:40:07;;;;;;;4.90;2.77;;;;;;;20.77;100.00;63022.69;5071203;28;20205;-73
2022/07/07 04:42:35;;;;;;;2.73;2.40;;;;;;;20.95;100.00;63046.81;5053753;28;20216;-74
2022/07/07 04:45:03;;;;;;;4.00;2.77;;;;;;;21.02;100.00;63052.38;5071056;28;20196;-73
2022/07/07 04:47:30;;;;;;;4.27;2.80;;;;;;;21.17;100.00;63064.94;5071704;28;20204;-75
2022/07/07 04:50:02;;;;;;;4.10;2.80;;;;;;;21.39;100.00;63093.94;5059729;28;20582;-74
2022/07/07 04:52:29;;;;;;;5.33;2.70;;;;;;;21.51;100.00;63106.91;5061974;28;20219;-73
2022/07/07 04:54:56;;;;;;;7.33;3.00;;;;;;;21.59;100.00;63110.38;5071136;28;20200;-73
2022/07/07 04:57:25;;;;;;;3.97;3.00;;;;;;;21.75;100.00;63132.91;5071377;28;20684;-73
2022/07/07 04:59:54;;;;;;;3.90;2.80;;;;;;;21.98;100.00;63152.63;5071013;28;20204;-77
2022/07/07 05:02:21;;;;;;;9.20;2.80;;;;;;;22.08;100.00;63168.09;5071662;28;20195;-75
2022/07/07 05:04:49;;;;;;;4.33;2.90;;;;;;;21.95;100.00;63151.44;5070846;28;20238;-74
2022/07/07 05:07:19;;;;;;;3.30;2.93;;;;;;;22.06;100.00;63163.88;5070880;28;20283;-73
2022/07/07 05:09:46;;;;;;;3.10;2.83;;;;;;;22.12;100.00;63169.84;5070871;28;20219;-75
2022/07/07 05:12:16;;;;;;;3.87;3.20;;;;;;;22.31;100.00;63193.56;5070934;28;20240;-75
2022/07/07 05:14:44;;;;;;;3.20;2.90;;;;;;;22.26;100.00;63188.16;5071229;28;20204;-74
2022/07/07 05:17:11;;;;;;;6.33;2.63;;;;;;;22.43;100.00;63203.97;5052803;28;20287;-74
2022/07/07 05:19:38;;;;;;;3.07;2.77;;;;;;;22.63;100.00;63222.53;5065701;28;20213;-75
2022/07/07 05:22:05;;;;;;;5.73;2.93;;;;;;;22.63;100.00;63223.06;5063398;28;20242;-74
2022/07/07 05:24:33;;;;;;;3.90;2.80;;;;;;;22.76;100.00;63241.28;5070821;28;20204;-76
2022/07/07 05:27:01;;;;;;;4.27;2.53;;;;;;;22.82;100.00;63247.78;5070674;28;20251;-73
2022/07/07 05:29:29;;;;;;;9.47;3.03;;;;;;;22.81;100.00;63242.03;5071002;28;20648;-74
2022/07/07 05:31:57;;;;;;;4.60;2.70;;;;;;;22.66;100.00;63228.34;5057126;28;20224;-74
2022/07/07 05:34:24;;;;;;;4.50;2.90;;;;;;;22.87;100.00;63247.97;5057227;28;20247;-75
2022/07/07 05:36:51;;;;;;;4.70;2.60;;;;;;;23.03;100.00;63270.53;5070620;28;20215;-75
2022/07/07 05:39:20;;;;;;;4.90;2.67;;;;;;;23.12;100.00;63275.09;5070570;28;20205;-75
2022/07/07 05:41:48;;;;;;;2.93;2.63;;;;;;;22.94;100.00;63250.91;5071619;28;20204;-73
2022/07/07 05:44:16;;;;;;;5.23;2.50;;;;;;;22.66;100.00;63228.91;5071191;28;20197;-73
2022/07/07 05:46:43;;;;;;;3.13;2.47;;;;;;;23.22;100.00;63286.47;5070435;28;20283;-75
2022/07/07 05:49:12;;;;;;;3.60;2.60;;;;;;;23.36;100.00;63303.72;5070610;28;20204;-74
2022/07/07 05:51:40;;;;;;;4.87;2.90;;;;;;;23.49;100.00;63318.38;5071000;28;20329;-75
2022/07/07 05:54:06;;;;;;;2.93;2.63;;;;;;;23.58;100.00;63324.44;5070478;28;20629;-74
2022/07/07 05:56:34;;;;;;;5.27;2.80;;;;;;;23.73;100.00;63341.25;5070424;28;20647;-74
2022/07/07 05:59:02;;;;;;;4.27;3.03;;;;;;;23.74;100.00;63344.41;5073454;28;20219;-74
2022/07/07 06:01:31;;;;;;;5.83;2.73;;;;;;;23.70;100.00;63342.66;5074682;28;20204;-74
2022/07/07 06:03:58;;;;;;;9.40;3.00;;;;;;;23.21;100.00;63290.03;5074299;28;20192;-75
2022/07/07 06:06:28;;;;;;;2.97;2.60;;;;;;;24.00;100.00;63375.75;5074148;28;20204;-74
2022/07/07 06:08:56;;;;;;;5.33;2.53;;;;;;;23.76;100.00;63344.50;5073911;28;20193;-74
2022/07/07 06:11:24;;;;;;;3.00;2.70;;;;;;;23.84;100.00;63355.25;5074054;28;20235;-74
2022/07/07 06:13:52;;;;;;;4.50;2.50;;;;;;;23.99;100.00;63374.13;5073899;28;20223;-75
2022/07/07 06:16:38;;;;;;;5.37;2.87;;;;;;;23.88;100.00;63357.53;5074066;28;20206;-74
2022/07/07 06:19:07;;;;;;;3.00;2.60;;;;;;;23.79;100.00;63350.34;5062675;28;20382;-73
2022/07/07 06:21:34;;;;;;;2.70;2.50;;;;;;;23.10;100.00;63272.94;5062203;28;20232;-72
2022/07/07 06:24:01;;;;;;;3.50;2.80;;;;;;;23.47;100.00;63316.19;5073807;28;20200;-74
2022/07/07 06:26:28;;;;;;;3.20;2.90;;;;;;;23.48;100.00;63319.34;5060347;28;20209;-73
2022/07/07 06:28:56;;;;;;;5.03;2.90;;;;;;;23.12;100.00;63277.69;5073836;28;20204;-75
2022/07/07 06:31:25;;;;;;;3.30;3.00;;;;;;;23.28;100.00;63292.44;5073684;28;20200;-76
2022/07/07 06:33:54;;;;;;;3.63;2.97;;;;;;;24.00;100.00;63375.75;5073870;28;20255;-75
2022/07/07 06:36:21;;;;;;;4.33;3.13;;;;;;;24.00;100.00;63375.75;5073549;28;20561;-74
2022/07/07 06:38:48;;;;;;;6.23;2.83;;;;;;;24.38;100.00;63410.72;5073575;28;20211;-73
2022/07/07 06:41:14;;;;;;;3.07;2.77;;;;;;;24.50;100.00;63428.94;5073638;28;20196;-74
2022/07/07 06:43:41;;;;;;;5.43;3.03;;;;;;;24.55;100.00;63431.78;5073670;28;20686;-75
2022/07/07 06:46:08;;;;;;;8.63;3.37;;;;;;;24.68;100.00;63445.88;5073452;28;20204;-73
2022/07/07 06:48:37;;;;;;;8.00;3.70;;;;;;;24.91;100.00;63468.28;5073559;28;20222;-75
2022/07/07 06:51:04;;;;;;;5.87;4.00;;;;;;;24.99;100.00;63477.47;5073477;28;20203;-75
2022/07/07 06:53:31;;;;;;;4.43;2.60;;;;;;;24.91;100.00;63474.00;5073477;28;20236;-74
2022/07/07 06:55:58;;;;;;;16.53;11.03;;;;;;;24.88;100.00;63467.59;5073201;28;20290;-74
2022/07/07 06:58:25;;;;;;;4.73;2.80;;;;;;;24.86;100.00;63462.81;5073194;28;20210;-74
2022/07/07 07:00:52;;;;;;;5.00;3.40;;;;;;;24.73;100.00;63451.34;5073058;28;20238;-73
2022/07/07 07:03:19;;;;;;;3.47;2.73;;;;;;;24.83;100.00;63460.13;5073121;28;20312;-73
2022/07/07 07:05:49;;;;;;;12.70;3.50;;;;;;;25.00;100.00;63478.03;5072927;28;20204;-73
2022/07/07 07:08:18;;;;;;;5.00;2.97;;;;;;;25.30;100.00;63510.59;5073084;28;20214;-73
2022/07/07 07:10:45;;;;;;;3.67;2.87;;;;;;;25.55;100.00;63537.78;5060308;28;20596;-73
2022/07/07 07:13:13;;;;;;;5.10;2.53;;;;;;;25.23;100.00;63503.00;5072625;28;20615;-74
2022/07/07 07:15:41;;;;;;;3.87;2.67;;;;;;;25.72;100.00;63558.88;5073289;28;20223;-74
2022/07/07 07:18:08;;;;;;;8.30;2.90;;;;;;;25.68;100.00;63553.97;5072461;28;20314;-73
2022/07/07 07:20:35;;;;;;;5.20;2.73;;;;;;;25.62;100.00;63548.00;5060908;28;20208;-72
2022/07/07 07:23:04;;;;;;;6.03;2.53;;;;;;;25.61;100.00;63546.38;5063034;28;20232;-73
2022/07/07 07:25:32;;;;;;;8.43;2.70;;;;;;;25.88;100.00;63571.03;5072991;28;20207;-74
2022/07/07 07:27:59;;;;;;;5.77;3.00;;;;;;;25.03;100.00;63481.81;5072810;28;20204;-75
2022/07/07 07:30:27;;;;;;;6.13;2.80;;;;;;;26.17;100.00;63604.09;5072604;28;20204;-74
2022/07/07 07:32:56;;;;;;;3.23;2.80;;;;;;;26.26;100.00;63613.88;5072353;28;20224;-74
2022/07/07 07:35:32;;;;;;;4.87;2.57;;;;;;;26.46;100.00;63638.78;5072415;28;20200;-74
2022/07/07 07:37:59;;;;;;;6.10;3.17;;;;;;;26.17;100.00;63604.63;5072619;28;20214;-72
2022/07/07 07:40:28;;;;;;;14.77;2.53;;;;;;;26.22;100.00;63609.53;5073110;28;20223;-74
2022/07/07 07:42:57;;;;;;;3.47;2.17;;;;;;;26.18;100.00;63605.19;5073849;28;20215;-75
2022/07/07 07:45:24;;;;;;;4.07;2.70;;;;;;;26.72;100.00;63664.44;5072071;28;20196;-75
2022/07/07 07:47:52;;;;;;;4.27;2.50;;;;;;;26.91;100.00;63684.03;5072420;28;20269;-76
2022/07/07 07:50:21;;;;;;;3.93;2.43;;;;;;;26.82;100.00;63676.84;5072094;28;20196;-73
2022/07/07 07:52:49;;;;;;;5.73;2.30;;;;;;;25.98;100.00;63587.13;5062754;28;20228;-75
2022/07/07 07:55:18;;;;;;;5.23;2.53;;;;;;;26.49;100.00;63638.88;5069492;28;20269;-75
2022/07/07 07:57:48;;;;;;;3.63;2.00;;;;;;;26.31;100.00;63619.31;5072647;28;20208;-74
2022/07/07 08:00:18;;;;;;;6.37;2.13;;;;;;;26.77;100.00;63669.34;5072325;28;20199;-73
2022/07/07 08:02:46;;;;;;;3.67;2.50;;;;;;;26.71;100.00;63662.81;5073243;28;20270;-74
2022/07/07 08:05:16;;;;;;;6.63;2.37;;;;;;;26.87;100.00;63680.22;5072203;28;20203;-73
2022/07/07 08:07:45;;;;;;;3.60;2.73;;;;;;;26.45;100.00;63634.53;5072821;28;20232;-74
2022/07/07 08:10:14;;;;;;;3.57;2.60;;;;;;;27.18;100.00;63713.94;5072130;28;20205;-73
2022/07/07 08:12:44;;;;;;;6.93;2.33;;;;;;;27.04;100.00;63701.34;5071565;28;20235;-73
2022/07/07 08:15:14;;;;;;;4.03;2.50;;;;;;;26.45;100.00;63634.53;5059000;28;20202;-74
2022/07/07 08:17:41;;;;;;;3.80;2.67;;;;;;;27.16;100.00;63711.22;5071393;28;20251;-73
2022/07/07 08:20:09;;;;;;;7.37;3.00;;;;;;;26.70;100.00;63661.72;5061784;28;20205;-76
2022/07/07 08:22:36;;;;;;;3.23;2.37;;;;;;;27.32;100.00;63728.63;5068089;28;20230;-75
2022/07/07 08:25:04;;;;;;;8.23;2.40;;;;;;;27.67;100.00;63766.19;5071575;28;20573;-74
2022/07/07 08:27:32;;;;;;;2.97;2.27;;;;;;;27.92;100.00;63793.94;5071434;28;20192;-73
2022/07/07 08:30:01;;;;;;;2.63;2.40;;;;;;;27.67;100.00;63766.72;5071423;28;20204;-75
2022/07/07 08:32:30;;;;;;;5.43;2.67;;;;;;;27.54;100.00;63750.53;5071265;28;20596;-74
2022/07/07 08:34:58;;;;;;;4.60;2.60;;;;;;;27.45;100.00;63738.09;5071323;28;20571;-75
2022/07/07 08:37:25;;;;;;;7.07;2.80;;;;;;;27.60;100.00;63761.75;5071210;28;20197;-74
2022/07/07 08:39:53;;;;;;;6.00;2.60;;;;;;;27.57;100.00;63756.41;5071388;28;20212;-73
2022/07/07 08:42:20;;;;;;;4.77;2.50;;;;;;;27.45;100.00;63743.34;5053553;28;20208;-74
2022/07/07 08:44:47;;;;;;;2.73;2.50;;;;;;;27.55;100.00;63754.22;5071169;28;20204;-74
2022/07/07 08:47:15;;;;;;;3.60;2.30;;;;;;;27.23;100.00;63724.63;5071096;28;20576;-74
2022/07/07 08:49:44;;;;;;;6.90;2.60;;;;;;;27.47;100.00;63745.50;5071742;28;20199;-74
2022/07/07 08:52:12;;;;;;;2.50;2.30;;;;;;;27.63;100.00;63761.84;5070819;28;20269;-74
2022/07/07 08:54:40;;;;;;;3.40;2.30;;;;;;;27.51;100.00;63749.31;5070974;28;20311;-75
2022/07/07 08:57:07;;;;;;;4.63;2.50;;;;;;;27.35;100.00;63729.84;5071281;28;20200;-74
2022/07/07 08:59:36;;;;;;;6.17;2.60;;;;;;;28.22;100.00;63826.09;5070828;28;20626;-74
2022/07/07 09:02:04;;;;;;;3.43;2.40;;;;;;;28.10;100.00;63815.63;5070865;28;20601;-75
2022/07/07 09:04:32;;;;;;;3.40;2.40;;;;;;;28.03;100.00;63803.31;5070551;28;20211;-73
2022/07/07 09:07:03;;;;;;;6.30;2.90;;;;;;;28.27;100.00;63831.53;5057385;28;20199;-73
2022/07/07 09:09:41;;;;;;;3.23;2.60;;;;;;;28.49;100.00;63849.69;5063856;28;20203;-75
2022/07/07 09:12:10;;;;;;;6.70;2.87;;;;;;;28.44;100.00;63850.03;5066070;28;20304;-73
2022/07/07 09:14:40;;;;;;;4.37;2.80;;;;;;;27.79;100.00;63776.63;5071011;28;20235;-74
2022/07/07 09:17:17;;;;;;;3.30;2.50;;;;;;;28.19;100.00;63822.81;5070600;28;20211;-76
2022/07/07 09:19:45;;;;;;;5.30;2.50;;;;;;;28.61;100.00;63865.41;5064867;28;20196;-76
2022/07/07 09:22:13;;;;;;;6.43;2.70;;;;;;;27.85;100.00;63788.41;5064140;28;20718;-74
2022/07/07 09:24:54;;;;;;;2.57;2.37;;;;;;;28.33;100.00;63832.81;5058244;28;20209;-74
2022/07/07 09:27:22;;;;;;;3.87;2.40;;;;;;;28.57;100.00;63864.22;5070333;28;20200;-75
2022/07/07 09:29:50;;;;;;;7.90;2.47;;;;;;;28.84;100.00;63893.63;5070845;28;20208;-75
2022/07/07 09:32:17;;;;;;;2.50;2.30;;;;;;;28.34;100.00;63839.16;5070855;28;20234;-75
2022/07/07 09:34:45;;;;;;;2.53;2.20;;;;;;;27.90;100.00;63791.22;5074359;28;20227;-73
2022/07/07 09:39:56;;;;;;;3.93;2.30;;;;;;;29.82;100.00;63999.91;5054192;28;20215;-74
2022/07/07 09:42:24;;;;;;;2.90;2.40;;;;;;;29.69;100.00;63979.94;5074734;28;20196;-74
2022/07/07 09:44:53;;;;;;;4.20;2.33;;;;;;;29.37;100.00;63952.94;5074817;28;20206;-73
2022/07/07 09:47:22;;;;;;;2.50;2.30;;;;;;;29.00;100.00;63916.31;5061391;28;20197;-73
2022/07/07 09:50:01;;;;;;;3.73;2.17;;;;;;;29.56;100.00;63971.56;5074036;28;20200;-73
2022/07/07 09:52:31;;;;;;;5.17;2.80;;;;;;;29.11;100.00;63925.69;5074249;28;20283;-74
2022/07/07 09:54:59;;;;;;;2.60;2.40;;;;;;;28.84;100.00;63887.81;5074376;28;20236;-74
2022/07/07 09:57:26;;;;;;;3.20;2.50;;;;;;;28.90;100.00;63900.16;5074402;28;20203;-75
2022/07/07 09:59:54;;;;;;;3.47;2.60;;;;;;;29.48;100.00;63962.84;5074003;28;20208;-75
2022/07/07 10:02:23;;;;;;;3.60;2.20;;;;;;;29.39;100.00;63950.41;5073993;28;20196;-75
2022/07/07 10:04:52;;;;;;;3.47;2.60;;;;;;;29.19;100.00;63926.53;5073792;28;20196;-74
2022/07/07 10:07:21;;;;;;;9.90;3.00;;;;;;;28.42;100.00;63847.84;5073961;28;20689;-74
2022/07/07 10:09:53;;;;;;;7.10;2.70;;;;;;;28.37;100.00;63845.03;5073992;28;20227;-76
2022/07/07 10:12:26;;;;;;;5.40;2.33;;;;;;;28.66;100.00;63874.03;5074136;28;20238;-75
2022/07/07 10:14:59;;;;;;;6.17;2.70;;;;;;;29.09;100.00;63918.25;5061163;28;20336;-72
2022/07/07 10:17:27;;;;;;;6.03;2.50;;;;;;;28.21;100.00;63825.00;5073714;28;20204;-73
2022/07/07 10:19:55;;;;;;;6.80;2.70;;;;;;;29.25;100.00;63937.22;5066592;28;20227;-74
2022/07/07 10:22:27;;;;;;;5.13;2.40;;;;;;;29.37;100.00;63953.47;5068741;28;20223;-73
2022/07/07 10:24:58;;;;;;;2.93;2.53;;;;;;;29.45;100.00;63964.81;5074361;28;20204;-75
2022/07/07 10:27:28;;;;;;;2.97;2.60;;;;;;;29.20;100.00;63932.88;5073957;28;20208;-74
2022/07/07 10:30:02;;;;;;;4.60;2.80;;;;;;;29.75;100.00;63991.75;5063740;28;20208;-75
2022/07/07 10:32:31;;;;;;;2.67;2.47;;;;;;;29.53;100.00;63967.75;5071833;28;20242;-75
2022/07/07 10:35:00;;;;;;;2.90;2.50;;;;;;;29.15;100.00;63926.88;5073659;28;20234;-74
2022/07/07 10:37:29;;;;;;;3.83;2.40;;;;;;;30.24;100.00;64042.56;5074072;28;20208;-75
2022/07/07 10:39:58;;;;;;;3.00;2.53;;;;;;;30.68;100.00;64092.66;5074764;28;20201;-74
2022/07/07 10:42:45;;;;;;;4.37;2.17;;;;;;;30.68;100.00;64090.56;5075089;28;20203;-74
2022/07/07 10:45:12;;;;;;;4.47;2.37;;;;;;;30.58;100.00;64079.66;5074626;28;20241;-75
2022/07/07 10:47:43;;;;;;;2.63;2.43;;;;;;;30.57;100.00;64081.19;5075550;28;20204;-74
2022/07/07 10:50:28;;;;;;;2.30;2.17;;;;;;;30.47;100.00;64070.28;5076229;28;20197;-73
2022/07/07 10:52:59;;;;;;;3.30;2.50;;;;;;;30.95;100.00;64121.59;5091694;28;20192;-75
2022/07/07 10:55:54;;;;;;;2.77;2.57;;;;;;;31.19;100.00;64147.78;5092604;28;20235;-74
2022/07/07 10:58:56;;;;;;;3.23;2.20;;;;;;;30.72;100.00;64102.84;5094467;28;20202;-78
2022/07/07 11:01:25;;;;;;;2.87;2.40;;;;;;;29.94;100.00;64012.47;5086319;28;20200;-75
2022/07/07 11:03:52;;;;;;;6.90;2.50;;;;;;;29.55;100.00;63965.22;5082880;28;20200;-74
2022/07/07 11:06:21;;;;;;;6.00;2.87;;;;;;;29.28;100.00;63940.50;5075546;28;20204;-73
2022/07/07 11:09:03;;;;;;;2.20;2.10;;;;;;;27.86;100.00;63789.50;5074732;28;20204;-75
2022/07/07 11:11:33;;;;;;;3.70;2.47;;;;;;;28.56;100.00;63865.75;5062733;28;20216;-75
2022/07/07 11:14:09;;;;;;;4.33;2.73;;;;;;;28.79;100.00;63885.56;5073643;28;20235;-74
2022/07/07 11:16:39;;;;;;;5.90;2.40;;;;;;;29.74;100.00;63990.66;5073904;28;20295;-74
2022/07/07 11:19:07;;;;;;;3.43;2.40;;;;;;;30.34;100.00;64056.13;5072082;28;20207;-74
2022/07/07 11:22:04;;;;;;;6.93;2.90;;;;;;;29.91;100.00;64011.81;5061737;28;20297;-74
2022/07/07 11:24:34;;;;;;;2.50;2.30;;;;;;;29.71;100.00;63987.38;5072611;28;20643;-76
2022/07/07 11:27:05;;;;;;;2.63;2.40;;;;;;;29.18;100.00;63930.69;5073228;28;20207;-75
2022/07/07 11:29:32;;;;;;;2.83;2.30;;;;;;;28.87;100.00;63896.34;5073398;28;20204;-74
2022/07/07 11:32:06;;;;;;;3.90;2.37;;;;;;;28.82;100.00;63888.81;5074861;28;20213;-75
2022/07/07 11:34:48;;;;;;;4.43;2.33;;;;;;;29.44;100.00;63958.47;5076950;28;20224;-74
2022/07/07 11:37:27;;;;;;;3.60;2.30;;;;;;;29.24;100.00;63936.16;5073140;28;20201;-74
2022/07/07 11:39:56;;;;;;;13.67;2.60;;;;;;;29.02;100.00;63912.69;5073540;28;20212;-75
2022/07/07 11:42:25;;;;;;;6.60;2.37;;;;;;;29.73;100.00;63989.56;5072484;28;20667;-75
2022/07/07 11:44:54;;;;;;;2.97;2.40;;;;;;;30.29;100.00;64050.66;5072470;28;20211;-74
2022/07/07 11:47:22;;;;;;;6.90;2.10;;;;;;;30.57;100.00;64080.66;5060025;28;20570;-74
2022/07/07 11:49:49;;;;;;;12.43;2.60;;;;;;;30.00;100.00;64019.00;5072438;28;20204;-74